Česky Dansk Deutsch English Español Suomi Français Magyar Italiano Nederlands norsk Polski Português svenska Türkçe

 

Het Weer

Makkah (Saudi-Arabië)

21:00, 27 juli 2016 (GMT)

NWNNE
WE
SWSSE
Home            
Makkah Jeddah Jeddah King Abdul Aziz International Airport Taif Al Baha Port Sudan Bisha Port Sudan International Madinah Yenbo Abha Khamis Mushait Wadi Al Dawasser Airport Dawadmi Gizan Wejh Najran Massawa Sa'Ada / Sadah Gassim Agordat Asmara Hail

Om een weerknop op uw website of weblog te plaatsen, copieer onderstaande code en plak die in uw pagina. In het eerste vakje staat HTML-code, in het tweede vakje UBB-code.


Add to Google

Details

Visibility:Greater than 10000 m, 10 km, 32800 ft, 6.2 miles
Clouds:CAVOC
Temperature:35°C, 95°F
Gefühlte Temperatur:38°C, 101°F
Dew-point:21°C, 70°F
Atmospheric pressure:1000 hPa, 750.1 mmHg, 29.53 inHg, 0.987 atm
Relative humidity:44.2 %
METAR:OEMK 272100Z 00000KT CAVOK 35/21 Q1000

Snelkoppelingen

Actuele weersinformatie van de hele wereld. Voeg locaties toe met het plus (+) symbool. Deze snelkoppelingen kunnen worden toegevoegd aan Google.

Lid van de Technetium groep

website free tracking
StatCounter NetStat W3C Validator

14-04-2021 10:56:15
astro.technetium.be money.technetium.be phote.technetium.be tafeltennistafel.technetium.be www.ligfiets.net